createdAt,value
2023-04-21T00:03:55.773Z,13.60
2023-04-21T00:08:58.616Z,14.20
2023-04-21T00:14:01.514Z,12.10
2023-04-21T00:19:07.086Z,12.30
2023-04-21T00:24:10.047Z,12.30
2023-04-21T00:29:12.759Z,13.20
2023-04-21T00:34:15.682Z,11.60
2023-04-21T00:39:18.724Z,12.00
2023-04-21T00:44:21.750Z,12.00
2023-04-21T00:49:24.760Z,12.00
2023-04-21T00:54:27.771Z,12.40
2023-04-21T00:59:31.015Z,10.60
2023-04-21T01:04:38.984Z,9.60
2023-04-21T01:09:41.829Z,12.30
2023-04-21T01:14:44.632Z,14.70
2023-04-21T01:19:47.532Z,10.80
2023-04-21T01:24:50.724Z,9.80
2023-04-21T01:29:53.619Z,12.60
2023-04-21T01:34:57.879Z,12.20
2023-04-21T01:40:05.129Z,12.00
2023-04-21T01:45:08.490Z,10.10
2023-04-21T01:50:11.498Z,12.30
2023-04-21T01:55:14.953Z,12.50
2023-04-21T02:00:17.981Z,13.80
2023-04-21T02:05:20.967Z,11.00
2023-04-21T02:10:23.984Z,13.00
2023-04-21T02:15:28.259Z,13.00
2023-04-21T02:20:31.019Z,11.20
2023-04-21T02:25:34.008Z,10.80
2023-04-21T02:30:36.867Z,11.70
2023-04-21T02:35:39.874Z,11.40
2023-04-21T02:40:42.914Z,10.90
2023-04-21T02:45:46.503Z,11.10
2023-04-21T02:50:50.757Z,11.40
2023-04-21T02:55:53.565Z,12.20
2023-04-21T03:00:57.062Z,13.30
2023-04-21T03:06:01.746Z,14.30
2023-04-21T03:11:04.537Z,11.10
2023-04-21T03:16:07.617Z,12.50
2023-04-21T03:21:11.656Z,11.20
2023-04-21T03:26:15.073Z,13.80
2023-04-21T03:31:17.866Z,10.60
2023-04-21T03:36:21.231Z,11.10
2023-04-21T03:41:24.858Z,11.90
2023-04-21T03:46:27.829Z,12.70
2023-04-21T03:51:32.416Z,15.40
2023-04-21T03:56:35.402Z,13.50
2023-04-21T04:01:38.168Z,15.00
2023-04-21T04:06:41.018Z,12.10
2023-04-21T04:11:43.738Z,15.20
2023-04-21T04:16:46.670Z,14.90
2023-04-21T04:21:49.410Z,11.10
2023-04-21T04:26:54.264Z,11.40
2023-04-21T04:31:58.079Z,11.90
2023-04-21T04:37:02.535Z,11.00
2023-04-21T04:42:11.815Z,16.80
2023-04-21T04:47:14.559Z,12.50
2023-04-21T04:52:17.386Z,13.50
2023-04-21T04:57:20.696Z,12.50
2023-04-21T05:02:24.321Z,15.30
2023-04-21T05:07:27.639Z,11.30
2023-04-21T05:12:34.552Z,11.90
2023-04-21T05:17:37.374Z,9.20
2023-04-21T05:22:40.773Z,8.20
2023-04-21T05:27:43.720Z,10.30
2023-04-21T05:32:46.576Z,10.80
2023-04-21T05:37:49.339Z,6.70
2023-04-21T05:42:53.063Z,11.60
2023-04-21T05:47:56.116Z,7.00
2023-04-21T05:53:01.108Z,7.60
2023-04-21T05:58:04.393Z,9.20
2023-04-21T06:03:07.321Z,7.90
2023-04-21T06:08:10.250Z,8.50
2023-04-21T06:13:13.032Z,6.80
2023-04-21T06:18:16.284Z,8.00
2023-04-21T06:23:19.182Z,7.60
2023-04-21T06:28:22.144Z,8.60
2023-04-21T06:33:25.044Z,8.50
2023-04-21T06:38:27.839Z,10.00
2023-04-21T06:43:30.743Z,7.80
2023-04-21T06:48:33.603Z,5.20
2023-04-21T06:53:38.297Z,7.30
2023-04-21T06:58:41.181Z,7.50
2023-04-21T07:03:44.038Z,6.40
2023-04-21T07:08:47.280Z,9.40
2023-04-21T07:13:50.162Z,6.90
2023-04-21T07:18:54.190Z,5.50
2023-04-21T07:23:59.048Z,10.60
2023-04-21T07:29:01.909Z,5.40
2023-04-21T07:34:04.842Z,4.90
2023-04-21T07:39:07.935Z,5.70
2023-04-21T07:44:11.069Z,5.00
2023-04-21T07:49:13.961Z,7.10
2023-04-21T07:54:16.908Z,6.00
2023-04-21T07:59:20.066Z,5.20
2023-04-21T08:04:23.594Z,4.40
2023-04-21T08:09:27.406Z,6.60
2023-04-21T08:14:30.351Z,3.70
2023-04-21T08:19:33.181Z,3.30
2023-04-21T08:24:36.145Z,5.00
2023-04-21T08:29:39.006Z,2.80
2023-04-21T08:34:42.821Z,3.60
2023-04-21T08:39:46.364Z,3.80
2023-04-21T08:44:49.238Z,3.10
2023-04-21T08:49:52.325Z,4.60
2023-04-21T08:54:55.678Z,7.00
2023-04-21T08:59:58.521Z,3.70
2023-04-21T09:05:01.611Z,6.10
2023-04-21T09:10:06.309Z,5.50
2023-04-21T09:15:11.469Z,5.10
2023-04-21T09:20:20.246Z,3.20
2023-04-21T09:25:23.533Z,4.70
2023-04-21T09:30:26.619Z,6.30
2023-04-21T09:35:32.780Z,8.40
2023-04-21T09:40:35.942Z,3.70
2023-04-21T09:45:40.575Z,3.40
2023-04-21T09:55:50.756Z,2.60
2023-04-21T10:00:57.572Z,3.50
2023-04-21T10:06:03.533Z,4.50
2023-04-21T10:11:12.367Z,2.80
2023-04-21T10:16:17.594Z,5.00
2023-04-21T10:21:22.257Z,3.70
2023-04-21T10:26:32.709Z,3.40
2023-04-21T10:31:36.721Z,3.30
2023-04-21T10:36:56.603Z,3.70
2023-04-21T10:42:24.470Z,4.50
2023-04-21T10:47:49.933Z,2.90
2023-04-21T10:53:10.334Z,2.90
2023-04-21T10:58:16.671Z,3.10
2023-04-21T11:03:19.714Z,3.60
2023-04-21T11:08:22.907Z,3.40
2023-04-21T11:13:29.108Z,2.90
2023-04-21T11:18:43.513Z,5.90
2023-04-21T11:23:55.195Z,3.00
2023-04-21T11:29:08.577Z,4.50
2023-04-21T11:34:11.748Z,4.10
2023-04-21T11:39:17.263Z,2.30
2023-04-21T11:44:50.783Z,3.00
2023-04-21T11:49:56.439Z,3.00
2023-04-21T11:55:05.730Z,2.80
2023-04-21T12:00:16.147Z,2.60
2023-04-21T12:05:19.238Z,4.80
2023-04-21T12:10:22.384Z,2.90
2023-04-21T12:15:25.327Z,2.30
2023-04-21T12:20:29.853Z,3.00
2023-04-21T12:25:33.052Z,2.80
2023-04-21T12:30:38.682Z,2.70
2023-04-21T12:35:43.887Z,2.70
2023-04-21T12:40:46.822Z,2.40
2023-04-21T12:45:50.632Z,3.80
2023-04-21T12:50:54.696Z,2.50
2023-04-21T13:01:08.565Z,3.30
2023-04-21T13:06:11.529Z,3.50
2023-04-21T13:11:14.416Z,1.90
2023-04-21T13:16:17.456Z,3.00
2023-04-21T13:21:20.334Z,4.30
2023-04-21T13:26:23.324Z,2.50
2023-04-21T13:31:26.862Z,2.60
2023-04-21T13:36:30.203Z,3.70
2023-04-21T13:41:33.005Z,1.80
2023-04-21T13:46:36.347Z,3.20
2023-04-21T13:51:39.341Z,5.20
2023-04-21T13:56:42.910Z,5.20
2023-04-21T14:01:46.057Z,2.30
2023-04-21T14:06:49.413Z,2.10
2023-04-21T14:11:52.443Z,3.30
2023-04-21T14:21:58.252Z,2.80
2023-04-21T14:27:01.227Z,2.20
2023-04-21T14:32:04.253Z,1.80
2023-04-21T14:37:07.332Z,2.00
2023-04-21T14:42:10.326Z,3.00
2023-04-21T14:47:13.519Z,2.20
2023-04-21T14:52:16.595Z,4.20
2023-04-21T14:57:21.914Z,2.90
2023-04-21T15:02:25.379Z,2.30
2023-04-21T15:07:28.651Z,2.90
2023-04-21T15:12:32.469Z,3.00
2023-04-21T15:17:36.479Z,3.60
2023-04-21T15:22:39.547Z,4.70
2023-04-21T15:27:42.468Z,3.80
2023-04-21T15:32:45.439Z,3.70
2023-04-21T15:37:48.389Z,4.40
2023-04-21T15:42:51.252Z,2.80
2023-04-21T15:47:54.197Z,3.90
2023-04-21T15:52:57.355Z,3.40
2023-04-21T15:58:00.857Z,2.80
2023-04-21T16:03:04.170Z,2.50
2023-04-21T16:08:07.351Z,3.40
2023-04-21T16:13:10.224Z,4.20
2023-04-21T16:18:13.149Z,4.10
2023-04-21T16:23:15.996Z,5.50
2023-04-21T16:28:18.801Z,3.60
2023-04-21T16:33:22.044Z,3.70
2023-04-21T16:38:24.931Z,3.60
2023-04-21T16:43:28.006Z,4.50
2023-04-21T16:48:30.940Z,3.50
2023-04-21T16:53:34.999Z,5.70
2023-04-21T16:58:38.022Z,5.40
2023-04-21T17:03:41.677Z,4.00
2023-04-21T17:08:44.897Z,5.90
2023-04-21T17:13:47.762Z,8.40
2023-04-21T17:18:50.852Z,4.00
2023-04-21T17:23:53.804Z,3.70
2023-04-21T17:28:57.643Z,5.40
2023-04-21T17:34:00.541Z,4.60
2023-04-21T17:39:03.531Z,6.70
2023-04-21T17:44:06.594Z,4.70
2023-04-21T17:49:09.894Z,6.50
2023-04-21T17:54:12.896Z,8.50
2023-04-21T17:59:16.422Z,8.90
2023-04-21T18:04:19.399Z,7.80
2023-04-21T18:09:22.611Z,6.50
2023-04-21T18:14:25.494Z,8.10
2023-04-21T18:19:28.465Z,8.40
2023-04-21T18:24:31.594Z,7.60
2023-04-21T18:29:34.458Z,6.70
2023-04-21T18:34:37.756Z,9.20
2023-04-21T18:39:40.870Z,9.20
2023-04-21T18:44:43.916Z,8.10
2023-04-21T18:49:47.257Z,9.90
2023-04-21T18:54:50.653Z,7.60
2023-04-21T18:59:53.521Z,8.10
2023-04-21T19:04:57.225Z,10.00
2023-04-21T19:10:00.122Z,10.40
2023-04-21T19:15:04.026Z,9.20
2023-04-21T19:20:08.216Z,12.10
2023-04-21T19:25:12.114Z,10.20
2023-04-21T19:30:15.267Z,12.90
2023-04-21T19:35:18.324Z,9.10
2023-04-21T19:40:21.479Z,9.40
2023-04-21T19:45:25.981Z,9.60
2023-04-21T19:50:28.907Z,13.80
2023-04-21T19:55:32.008Z,13.90
2023-04-21T20:00:35.005Z,10.50
2023-04-21T20:05:38.010Z,13.60
2023-04-21T20:10:43.980Z,11.00
2023-04-21T20:15:46.918Z,14.70
2023-04-21T20:20:49.991Z,9.40
2023-04-21T20:25:52.959Z,10.80
2023-04-21T20:30:57.100Z,8.70
2023-04-21T20:36:07.233Z,12.40
2023-04-21T20:41:10.198Z,12.20
2023-04-21T20:46:13.787Z,11.40
2023-04-21T20:51:16.917Z,12.30
2023-04-21T20:56:19.900Z,11.70
2023-04-21T21:01:23.672Z,15.40
2023-04-21T21:06:26.625Z,13.60
2023-04-21T21:11:29.592Z,15.30
2023-04-21T21:16:32.519Z,13.60
2023-04-21T21:21:35.430Z,13.30
2023-04-21T21:26:42.503Z,15.10
2023-04-21T21:31:45.876Z,18.20
2023-04-21T21:36:48.752Z,15.60
2023-04-21T21:41:51.685Z,17.60
2023-04-21T21:46:54.534Z,16.70
2023-04-21T21:51:57.542Z,16.80
2023-04-21T21:57:01.362Z,19.20
2023-04-21T22:02:04.588Z,19.90
2023-04-21T22:07:08.129Z,18.10
2023-04-21T22:12:11.014Z,15.10
2023-04-21T22:17:14.571Z,17.10
2023-04-21T22:22:17.836Z,19.50
2023-04-21T22:27:20.743Z,20.90
2023-04-21T22:32:23.597Z,21.70
2023-04-21T22:37:26.506Z,21.70
2023-04-21T22:42:29.420Z,21.40
2023-04-21T22:47:33.626Z,19.70
2023-04-21T22:52:37.544Z,20.40
2023-04-21T22:57:40.902Z,19.10
2023-04-21T23:02:43.889Z,19.10
2023-04-21T23:07:47.320Z,21.80
2023-04-21T23:12:50.400Z,25.70
2023-04-21T23:17:53.301Z,24.80
2023-04-21T23:22:56.168Z,21.80
2023-04-21T23:27:58.990Z,26.40
2023-04-21T23:33:01.922Z,25.60
2023-04-21T23:38:06.527Z,26.20
2023-04-21T23:43:09.401Z,29.20
2023-04-21T23:48:12.341Z,27.90
2023-04-21T23:53:15.275Z,23.80
2023-04-21T23:58:19.488Z,25.30
